sensor_id;sensor_type;location;lat;lon;timestamp;pressure;altitude;pressure_sealevel;temperature;humidity
61906;BME280;47863;55.766;37.672;2023-06-14T00:00:51;100298.16;;;14.20;42.38
61906;BME280;47863;55.766;37.672;2023-06-14T00:03:18;100301.00;;;14.19;42.56
61906;BME280;47863;55.766;37.672;2023-06-14T00:05:48;100264.50;;;14.00;42.69
61906;BME280;47863;55.766;37.672;2023-06-14T00:08:14;100301.03;;;14.11;42.26
61906;BME280;47863;55.766;37.672;2023-06-14T00:10:40;100269.78;;;13.85;42.85
61906;BME280;47863;55.766;37.672;2023-06-14T00:13:08;100292.78;;;14.04;42.79
61906;BME280;47863;55.766;37.672;2023-06-14T00:15:34;100297.50;;;14.02;42.80
61906;BME280;47863;55.766;37.672;2023-06-14T00:18:00;100299.72;;;13.98;43.32
61906;BME280;47863;55.766;37.672;2023-06-14T00:20:28;100276.66;;;13.79;43.12
61906;BME280;47863;55.766;37.672;2023-06-14T00:22:54;100288.78;;;13.83;43.18
61906;BME280;47863;55.766;37.672;2023-06-14T00:25:23;100291.31;;;13.85;43.29
61906;BME280;47863;55.766;37.672;2023-06-14T00:27:51;100299.69;;;13.90;43.42
61906;BME280;47863;55.766;37.672;2023-06-14T00:30:16;100291.47;;;13.83;43.40
61906;BME280;47863;55.766;37.672;2023-06-14T00:32:42;100211.59;;;13.35;43.40
61906;BME280;47863;55.766;37.672;2023-06-14T00:35:09;100288.44;;;13.78;43.62
61906;BME280;47863;55.766;37.672;2023-06-14T00:37:35;100296.19;;;13.81;43.55
61906;BME280;47863;55.766;37.672;2023-06-14T00:40:01;100294.69;;;13.79;43.73
61906;BME280;47863;55.766;37.672;2023-06-14T00:42:30;100289.63;;;13.76;43.96
61906;BME280;47863;55.766;37.672;2023-06-14T00:44:56;100300.91;;;13.79;43.82
61906;BME280;47863;55.766;37.672;2023-06-14T00:47:22;100298.38;;;13.78;44.13
61906;BME280;47863;55.766;37.672;2023-06-14T00:49:51;100281.91;;;13.73;44.15
61906;BME280;47863;55.766;37.672;2023-06-14T00:52:18;100268.44;;;13.64;44.18
61906;BME280;47863;55.766;37.672;2023-06-14T00:54:44;100285.75;;;13.70;44.15
61906;BME280;47863;55.766;37.672;2023-06-14T00:57:10;100299.72;;;13.74;44.14
61906;BME280;47863;55.766;37.672;2023-06-14T00:59:42;100294.50;;;13.72;44.93
61906;BME280;47863;55.766;37.672;2023-06-14T01:02:08;100299.22;;;13.70;44.58
61906;BME280;47863;55.766;37.672;2023-06-14T01:04:34;100296.72;;;13.68;44.47
61906;BME280;47863;55.766;37.672;2023-06-14T01:12:52;100291.50;;;13.67;45.24
61906;BME280;47863;55.766;37.672;2023-06-14T01:15:21;100288.97;;;13.65;44.67
61906;BME280;47863;55.766;37.672;2023-06-14T01:17:49;100288.97;;;13.65;45.17
61906;BME280;47863;55.766;37.672;2023-06-14T01:20:19;100304.28;;;13.65;44.81
61906;BME280;47863;55.766;37.672;2023-06-14T01:22:52;100290.81;;;13.65;45.76
61906;BME280;47863;55.766;37.672;2023-06-14T01:25:19;100301.59;;;13.65;45.07
61906;BME280;47863;55.766;37.672;2023-06-14T01:27:58;100267.78;;;13.46;45.47
61906;BME280;47863;55.766;37.672;2023-06-14T01:30:25;100299.72;;;13.65;45.24
61906;BME280;47863;55.766;37.672;2023-06-14T01:32:52;100301.59;;;13.65;45.13
61906;BME280;47863;55.766;37.672;2023-06-14T01:35:18;100307.81;;;13.65;45.46
61906;BME280;47863;55.766;37.672;2023-06-14T01:56:44;100198.28;;;13.00;45.27
61906;BME280;47863;55.766;37.672;2023-06-14T01:59:10;100303.59;;;13.71;45.53
61906;BME280;47863;55.766;37.672;2023-06-14T02:01:35;100301.59;;;13.73;45.54
61906;BME280;47863;55.766;37.672;2023-06-14T02:04:02;100261.19;;;13.48;45.40
61906;BME280;47863;55.766;37.672;2023-06-14T02:06:27;100303.75;;;13.78;45.62
61906;BME280;47863;55.766;37.672;2023-06-14T02:08:53;100296.19;;;13.81;45.57
61906;BME280;47863;55.766;37.672;2023-06-14T02:11:19;100308.47;;;13.84;45.79
61906;BME280;47863;55.766;37.672;2023-06-14T02:13:45;100284.91;;;13.78;45.74
61906;BME280;47863;55.766;37.672;2023-06-14T02:16:11;100287.13;;;13.82;45.70
61906;BME280;47863;55.766;37.672;2023-06-14T02:18:37;100252.13;;;13.66;45.91
61906;BME280;47863;55.766;37.672;2023-06-14T02:21:23;100273.66;;;13.82;45.94
61906;BME280;47863;55.766;37.672;2023-06-14T02:23:48;100296.00;;;13.99;46.03
61906;BME280;47863;55.766;37.672;2023-06-14T02:26:14;100296.66;;;14.01;46.07
61906;BME280;47863;55.766;37.672;2023-06-14T02:28:40;100304.41;;;14.04;46.09
61906;BME280;47863;55.766;37.672;2023-06-14T02:31:05;100299.03;;;14.04;46.11
61906;BME280;47863;55.766;37.672;2023-06-14T02:33:31;100305.91;;;14.07;46.15
61906;BME280;47863;55.766;37.672;2023-06-14T02:35:57;100306.41;;;14.11;46.35
61906;BME280;47863;55.766;37.672;2023-06-14T02:38:23;100275.81;;;13.95;46.22
61906;BME280;47863;55.766;37.672;2023-06-14T02:40:49;100298.34;;;14.11;46.19
61906;BME280;47863;55.766;37.672;2023-06-14T02:43:14;100304.38;;;14.21;46.43
61906;BME280;47863;55.766;37.672;2023-06-14T02:45:42;100271.22;;;14.04;46.49
61906;BME280;47863;55.766;37.672;2023-06-14T02:48:08;100301.69;;;14.21;46.49
61906;BME280;47863;55.766;37.672;2023-06-14T02:50:33;100312.09;;;14.32;46.42
61906;BME280;47863;55.766;37.672;2023-06-14T02:52:59;100316.13;;;14.36;46.61
61906;BME280;47863;55.766;37.672;2023-06-14T02:55:25;100300.00;;;14.28;46.55
61906;BME280;47863;55.766;37.672;2023-06-14T02:57:51;100313.41;;;14.44;46.48
61906;BME280;47863;55.766;37.672;2023-06-14T03:00:18;100307.34;;;14.42;46.58
61906;BME280;47863;55.766;37.672;2023-06-14T03:02:45;100315.91;;;14.54;46.62
61906;BME280;47863;55.766;37.672;2023-06-14T03:05:11;100316.44;;;14.58;46.32
61906;BME280;47863;55.766;37.672;2023-06-14T03:07:36;100318.41;;;14.64;46.59
61906;BME280;47863;55.766;37.672;2023-06-14T03:10:08;100323.81;;;14.64;46.68
61906;BME280;47863;55.766;37.672;2023-06-14T03:12:35;100324.44;;;14.74;46.48
61906;BME280;47863;55.766;37.672;2023-06-14T03:15:02;100293.13;;;14.65;46.53
61906;BME280;47863;55.766;37.672;2023-06-14T03:17:30;100292.78;;;14.68;46.51
61906;BME280;47863;55.766;37.672;2023-06-14T03:19:59;100293.78;;;14.75;46.63
61906;BME280;47863;55.766;37.672;2023-06-14T03:22:25;100300.44;;;14.87;46.65
61906;BME280;47863;55.766;37.672;2023-06-14T03:24:52;100316.53;;;15.04;46.38
61906;BME280;47863;55.766;37.672;2023-06-14T03:27:19;100316.19;;;15.07;46.42
61906;BME280;47863;55.766;37.672;2023-06-14T03:29:45;100321.38;;;15.17;46.24
61906;BME280;47863;55.766;37.672;2023-06-14T03:32:11;100324.19;;;15.23;46.45
61906;BME280;47863;55.766;37.672;2023-06-14T03:34:36;100294.56;;;15.15;46.27
61906;BME280;47863;55.766;37.672;2023-06-14T03:37:04;100306.72;;;15.34;46.23
61906;BME280;47863;55.766;37.672;2023-06-14T03:39:30;100288.84;;;15.33;46.32
61906;BME280;47863;55.766;37.672;2023-06-14T03:41:56;100312.50;;;15.54;46.04
61906;BME280;47863;55.766;37.672;2023-06-14T03:44:22;100312.78;;;15.59;46.12
61906;BME280;47863;55.766;37.672;2023-06-14T03:46:47;100271.38;;;15.44;45.95
61906;BME280;47863;55.766;37.672;2023-06-14T03:49:13;100312.34;;;15.71;46.11
61906;BME280;47863;55.766;37.672;2023-06-14T03:51:39;100315.00;;;15.79;45.88
61906;BME280;47863;55.766;37.672;2023-06-14T03:54:05;100302.16;;;15.81;45.93
61906;BME280;47863;55.766;37.672;2023-06-14T03:56:32;100310.50;;;15.94;45.69
61906;BME280;47863;55.766;37.672;2023-06-14T03:58:57;100311.72;;;16.06;45.86
61906;BME280;47863;55.766;37.672;2023-06-14T04:01:23;100304.00;;;16.03;45.59
61906;BME280;47863;55.766;37.672;2023-06-14T04:03:52;100312.28;;;16.17;45.57
61906;BME280;47863;55.766;37.672;2023-06-14T04:06:18;100305.41;;;16.14;45.28
61906;BME280;47863;55.766;37.672;2023-06-14T04:08:44;100254.78;;;15.93;45.71
61906;BME280;47863;55.766;37.672;2023-06-14T04:11:11;100324.50;;;16.42;45.52
61906;BME280;47863;55.766;37.672;2023-06-14T04:13:36;100316.13;;;16.52;45.61
61906;BME280;47863;55.766;37.672;2023-06-14T04:16:04;100282.94;;;16.43;45.33
61906;BME280;47863;55.766;37.672;2023-06-14T04:18:30;100309.66;;;16.68;45.31
61906;BME280;47863;55.766;37.672;2023-06-14T04:20:55;100313.31;;;16.75;45.33
61906;BME280;47863;55.766;37.672;2023-06-14T04:23:21;100241.34;;;16.44;45.31
61906;BME280;47863;55.766;37.672;2023-06-14T04:25:47;100306.41;;;16.88;45.34
61906;BME280;47863;55.766;37.672;2023-06-14T04:28:14;100319.94;;;17.02;45.66
61906;BME280;47863;55.766;37.672;2023-06-14T04:30:44;100313.81;;;17.15;45.41
61906;BME280;47863;55.766;37.672;2023-06-14T04:33:12;100311.44;;;17.27;45.44
61906;BME280;47863;55.766;37.672;2023-06-14T04:35:39;100307.59;;;17.36;45.28
61906;BME280;47863;55.766;37.672;2023-06-14T04:38:06;100277.06;;;17.28;45.22
61906;BME280;47863;55.766;37.672;2023-06-14T04:40:35;100307.97;;;17.55;45.33
61906;BME280;47863;55.766;37.672;2023-06-14T04:43:11;100298.72;;;17.71;45.08
61906;BME280;47863;55.766;37.672;2023-06-14T04:45:42;100308.00;;;17.83;45.00
61906;BME280;47863;55.766;37.672;2023-06-14T04:48:11;100304.34;;;17.91;44.97
61906;BME280;47863;55.766;37.672;2023-06-14T04:50:37;100304.00;;;18.00;44.74
61906;BME280;47863;55.766;37.672;2023-06-14T04:53:02;100306.56;;;18.09;44.76
61906;BME280;47863;55.766;37.672;2023-06-14T04:58:54;100313.16;;;18.28;44.68
61906;BME280;47863;55.766;37.672;2023-06-14T05:15:45;100194.91;;;18.33;43.55
61906;BME280;47863;55.766;37.672;2023-06-14T05:18:12;100305.88;;;19.25;43.13
61906;BME280;47863;55.766;37.672;2023-06-14T05:20:38;100310.13;;;19.47;42.89
61906;BME280;47863;55.766;37.672;2023-06-14T05:23:04;100302.41;;;19.71;42.69
61906;BME280;47863;55.766;37.672;2023-06-14T05:25:30;100300.53;;;19.98;42.61
61906;BME280;47863;55.766;37.672;2023-06-14T05:27:55;100288.81;;;20.24;41.99
61906;BME280;47863;55.766;37.672;2023-06-14T05:30:21;100301.03;;;20.53;41.92
61906;BME280;47863;55.766;37.672;2023-06-14T05:32:47;100302.72;;;20.61;41.96
61906;BME280;47863;55.766;37.672;2023-06-14T05:35:12;100300.22;;;20.66;41.88
61906;BME280;47863;55.766;37.672;2023-06-14T05:37:38;100301.25;;;20.72;41.90
61906;BME280;47863;55.766;37.672;2023-06-14T05:40:04;100251.25;;;20.53;41.62
61906;BME280;47863;55.766;37.672;2023-06-14T05:42:32;100282.97;;;20.86;41.59
61906;BME280;47863;55.766;37.672;2023-06-14T05:44:57;100297.09;;;21.08;41.49
61906;BME280;47863;55.766;37.672;2023-06-14T05:47:23;100299.78;;;21.14;41.37
61906;BME280;47863;55.766;37.672;2023-06-14T05:49:48;100297.25;;;21.19;41.03
61906;BME280;47863;55.766;37.672;2023-06-14T05:52:14;100296.75;;;21.29;40.77
61906;BME280;47863;55.766;37.672;2023-06-14T05:54:39;100302.78;;;21.38;40.31
61906;BME280;47863;55.766;37.672;2023-06-14T05:57:06;100302.56;;;21.39;40.02
61906;BME280;47863;55.766;37.672;2023-06-14T05:59:32;100301.53;;;21.41;40.12
61906;BME280;47863;55.766;37.672;2023-06-14T06:01:58;100305.25;;;21.46;39.94
61906;BME280;47863;55.766;37.672;2023-06-14T06:04:23;100308.34;;;21.56;39.62
61906;BME280;47863;55.766;37.672;2023-06-14T06:06:49;100305.97;;;21.67;39.34
61906;BME280;47863;55.766;37.672;2023-06-14T06:09:15;100308.34;;;21.82;38.49
61906;BME280;47863;55.766;37.672;2023-06-14T06:11:40;100305.91;;;21.98;38.17
61906;BME280;47863;55.766;37.672;2023-06-14T06:14:06;100303.28;;;22.10;38.28
61906;BME280;47863;55.766;37.672;2023-06-14T06:16:32;100302.31;;;22.23;37.86
61906;BME280;47863;55.766;37.672;2023-06-14T06:18:58;100261.69;;;22.15;37.69
61906;BME280;47863;55.766;37.672;2023-06-14T06:21:25;100301.06;;;22.63;37.31
61906;BME280;47863;55.766;37.672;2023-06-14T06:23:50;100284.69;;;22.63;37.06
61906;BME280;47863;55.766;37.672;2023-06-14T06:26:16;100300.38;;;22.86;36.79
61906;BME280;47863;55.766;37.672;2023-06-14T06:28:42;100302.78;;;22.94;36.65
61906;BME280;47863;55.766;37.672;2023-06-14T06:31:07;100279.19;;;23.00;36.08
61906;BME280;47863;55.766;37.672;2023-06-14T06:33:33;100302.31;;;23.58;35.58
61906;BME280;47863;55.766;37.672;2023-06-14T06:35:58;100272.31;;;23.81;34.33
61906;BME280;47863;55.766;37.672;2023-06-14T06:38:24;100273.41;;;24.04;34.70
61906;BME280;47863;55.766;37.672;2023-06-14T06:40:50;100274.94;;;24.23;33.83
61906;BME280;47863;55.766;37.672;2023-06-14T06:43:16;100290.75;;;24.45;32.95
61906;BME280;47863;55.766;37.672;2023-06-14T06:45:43;100288.84;;;24.57;32.80
61906;BME280;47863;55.766;37.672;2023-06-14T06:48:08;100296.06;;;24.75;32.73
61906;BME280;47863;55.766;37.672;2023-06-14T06:50:37;100286.72;;;24.88;32.81
61906;BME280;47863;55.766;37.672;2023-06-14T06:53:03;100267.22;;;24.84;32.51
61906;BME280;47863;55.766;37.672;2023-06-14T06:55:30;100294.06;;;24.99;32.25
61906;BME280;47863;55.766;37.672;2023-06-14T06:57:55;100288.63;;;24.87;32.30
61906;BME280;47863;55.766;37.672;2023-06-14T07:00:21;100297.69;;;24.76;32.28
61906;BME280;47863;55.766;37.672;2023-06-14T07:02:47;100303.31;;;24.69;32.33
61906;BME280;47863;55.766;37.672;2023-06-14T07:05:13;100298.53;;;24.88;31.40
61906;BME280;47863;55.766;37.672;2023-06-14T07:07:39;100272.78;;;25.64;30.18
61906;BME280;47863;55.766;37.672;2023-06-14T07:10:05;100291.25;;;26.58;29.71
61906;BME280;47863;55.766;37.672;2023-06-14T07:12:31;100284.16;;;27.39;28.89
61906;BME280;47863;55.766;37.672;2023-06-14T07:14:59;100288.09;;;28.60;27.62
61906;BME280;47863;55.766;37.672;2023-06-14T07:17:26;100284.75;;;30.24;26.37
61906;BME280;47863;55.766;37.672;2023-06-14T07:19:51;100292.63;;;32.25;25.52
61906;BME280;47863;55.766;37.672;2023-06-14T07:22:19;100258.63;;;34.09;24.34
61906;BME280;47863;55.766;37.672;2023-06-14T07:24:45;100293.63;;;35.66;23.39
61906;BME280;47863;55.766;37.672;2023-06-14T07:27:10;100286.50;;;36.85;22.45
61906;BME280;47863;55.766;37.672;2023-06-14T07:29:38;100282.09;;;38.36;21.31
61906;BME280;47863;55.766;37.672;2023-06-14T07:32:04;100298.97;;;39.83;20.34
61906;BME280;47863;55.766;37.672;2023-06-14T07:34:30;100286.91;;;41.02;19.50
61906;BME280;47863;55.766;37.672;2023-06-14T07:36:56;100292.88;;;42.13;18.11
61906;BME280;47863;55.766;37.672;2023-06-14T07:39:22;100273.00;;;43.09;17.16
61906;BME280;47863;55.766;37.672;2023-06-14T07:41:47;100268.75;;;44.23;15.95
61906;BME280;47863;55.766;37.672;2023-06-14T07:44:13;100289.19;;;45.23;15.31
61906;BME280;47863;55.766;37.672;2023-06-14T07:46:38;100291.94;;;45.87;15.04
61906;BME280;47863;55.766;37.672;2023-06-14T07:49:04;100266.13;;;46.41;14.44
61906;BME280;47863;55.766;37.672;2023-06-14T07:51:30;100288.03;;;47.17;13.78
61906;BME280;47863;55.766;37.672;2023-06-14T07:53:56;100286.63;;;47.77;12.32
61906;BME280;47863;55.766;37.672;2023-06-14T08:14:46;100125.84;;;48.73;9.93
61906;BME280;47863;55.766;37.672;2023-06-14T08:17:12;100290.38;;;50.15;9.59
61906;BME280;47863;55.766;37.672;2023-06-14T08:19:37;100236.19;;;49.70;9.40
61906;BME280;47863;55.766;37.672;2023-06-14T08:22:03;100250.25;;;49.36;9.25
61906;BME280;47863;55.766;37.672;2023-06-14T08:24:29;100297.38;;;49.40;9.25
61906;BME280;47863;55.766;37.672;2023-06-14T08:26:54;100274.22;;;49.31;8.99
61906;BME280;47863;55.766;37.672;2023-06-14T08:29:21;100302.81;;;49.87;8.63
61906;BME280;47863;55.766;37.672;2023-06-14T08:31:47;100299.16;;;50.32;8.38
61906;BME280;47863;55.766;37.672;2023-06-14T08:34:13;100298.72;;;50.37;7.83
61906;BME280;47863;55.766;37.672;2023-06-14T08:36:39;100293.28;;;50.53;7.74
61906;BME280;47863;55.766;37.672;2023-06-14T08:39:05;100291.38;;;50.77;7.77
61906;BME280;47863;55.766;37.672;2023-06-14T08:41:30;100289.97;;;50.96;7.74
61906;BME280;47863;55.766;37.672;2023-06-14T08:43:56;100286.88;;;51.18;7.41
61906;BME280;47863;55.766;37.672;2023-06-14T08:46:25;100286.19;;;51.37;6.71
61906;BME280;47863;55.766;37.672;2023-06-14T08:48:54;100278.31;;;51.49;6.99
61906;BME280;47863;55.766;37.672;2023-06-14T08:51:22;100279.44;;;51.55;7.18
61906;BME280;47863;55.766;37.672;2023-06-14T08:53:54;100239.28;;;51.38;6.70
61906;BME280;47863;55.766;37.672;2023-06-14T08:56:27;100241.97;;;51.53;6.49
61906;BME280;47863;55.766;37.672;2023-06-14T08:58:53;100263.88;;;51.87;6.98
61906;BME280;47863;55.766;37.672;2023-06-14T09:01:20;100237.28;;;51.90;6.63
61906;BME280;47863;55.766;37.672;2023-06-14T09:03:48;100264.63;;;51.91;6.39
61906;BME280;47863;55.766;37.672;2023-06-14T09:06:14;100274.56;;;51.79;6.31
61906;BME280;47863;55.766;37.672;2023-06-14T09:08:44;100275.91;;;51.98;5.93
61906;BME280;47863;55.766;37.672;2023-06-14T09:11:12;100268.22;;;51.95;6.63
61906;BME280;47863;55.766;37.672;2023-06-14T09:13:38;100270.09;;;51.78;6.50
61906;BME280;47863;55.766;37.672;2023-06-14T09:16:05;100244.06;;;51.72;6.36
61906;BME280;47863;55.766;37.672;2023-06-14T09:18:39;100251.91;;;52.19;5.78
61906;BME280;47863;55.766;37.672;2023-06-14T09:21:07;100237.19;;;52.21;5.83
61906;BME280;47863;55.766;37.672;2023-06-14T09:23:41;100256.66;;;52.26;6.23
61906;BME280;47863;55.766;37.672;2023-06-14T09:26:25;100248.41;;;51.57;6.37
61906;BME280;47863;55.766;37.672;2023-06-14T09:28:52;100243.63;;;50.89;6.33
61906;BME280;47863;55.766;37.672;2023-06-14T09:31:19;100240.78;;;50.89;6.43
61906;BME280;47863;55.766;37.672;2023-06-14T09:33:48;100254.44;;;51.35;6.39
61906;BME280;47863;55.766;37.672;2023-06-14T09:36:21;100256.53;;;51.31;6.12
61906;BME280;47863;55.766;37.672;2023-06-14T09:39:00;100246.63;;;51.67;6.51
61906;BME280;47863;55.766;37.672;2023-06-14T09:41:34;100247.06;;;51.65;6.05
61906;BME280;47863;55.766;37.672;2023-06-14T09:44:05;100251.63;;;51.86;6.20
61906;BME280;47863;55.766;37.672;2023-06-14T09:46:32;100240.88;;;51.94;5.98
61906;BME280;47863;55.766;37.672;2023-06-14T09:48:59;100203.69;;;51.47;6.00
61906;BME280;47863;55.766;37.672;2023-06-14T09:51:25;100229.50;;;51.40;6.14
61906;BME280;47863;55.766;37.672;2023-06-14T09:53:53;100230.41;;;51.33;6.17
61906;BME280;47863;55.766;37.672;2023-06-14T09:56:28;100244.84;;;51.22;5.57
61906;BME280;47863;55.766;37.672;2023-06-14T09:58:58;100216.88;;;51.10;5.77
61906;BME280;47863;55.766;37.672;2023-06-14T10:01:25;100232.63;;;50.87;6.10
61906;BME280;47863;55.766;37.672;2023-06-14T10:04:02;100226.00;;;50.97;6.00
61906;BME280;47863;55.766;37.672;2023-06-14T10:06:29;100231.63;;;51.01;6.01
61906;BME280;47863;55.766;37.672;2023-06-14T10:08:58;100225.19;;;50.63;6.13
61906;BME280;47863;55.766;37.672;2023-06-14T10:11:26;100222.34;;;50.63;6.02
61906;BME280;47863;55.766;37.672;2023-06-14T10:13:56;100199.19;;;50.57;6.22
61906;BME280;47863;55.766;37.672;2023-06-14T10:16:32;100213.97;;;50.83;6.14
61906;BME280;47863;55.766;37.672;2023-06-14T10:19:20;100215.22;;;51.09;6.21
61906;BME280;47863;55.766;37.672;2023-06-14T10:22:06;100203.75;;;51.16;5.92
61906;BME280;47863;55.766;37.672;2023-06-14T10:24:40;100207.84;;;51.15;6.05
61906;BME280;47863;55.766;37.672;2023-06-14T10:27:07;100200.59;;;51.07;6.14
61906;BME280;47863;55.766;37.672;2023-06-14T10:32:23;100198.06;;;51.16;6.30
61906;BME280;47863;55.766;37.672;2023-06-14T10:35:06;100198.53;;;51.07;6.06
61906;BME280;47863;55.766;37.672;2023-06-14T10:37:34;100206.50;;;50.92;6.19
61906;BME280;47863;55.766;37.672;2023-06-14T10:40:01;100202.50;;;50.52;6.18
61906;BME280;47863;55.766;37.672;2023-06-14T10:42:33;100189.94;;;50.04;6.31
61906;BME280;47863;55.766;37.672;2023-06-14T10:44:59;100198.97;;;49.99;6.33
61906;BME280;47863;55.766;37.672;2023-06-14T10:47:33;100184.44;;;49.83;6.22
61906;BME280;47863;55.766;37.672;2023-06-14T10:50:08;100200.66;;;49.93;6.08
61906;BME280;47863;55.766;37.672;2023-06-14T10:52:38;100189.69;;;49.91;6.19
61906;BME280;47863;55.766;37.672;2023-06-14T10:55:07;100188.19;;;49.76;6.29
61906;BME280;47863;55.766;37.672;2023-06-14T10:57:49;100184.22;;;49.59;6.44
61906;BME280;47863;55.766;37.672;2023-06-14T11:00:22;100173.84;;;49.38;6.12
61906;BME280;47863;55.766;37.672;2023-06-14T11:10:59;100178.91;;;49.65;6.39
61906;BME280;47863;55.766;37.672;2023-06-14T11:13:26;100180.69;;;49.48;6.48
61906;BME280;47863;55.766;37.672;2023-06-14T11:36:31;100085.44;;;46.86;7.67
61906;BME280;47863;55.766;37.672;2023-06-14T11:39:03;100164.47;;;47.09;6.98
61906;BME280;47863;55.766;37.672;2023-06-14T11:41:40;100147.72;;;46.72;7.03
61906;BME280;47863;55.766;37.672;2023-06-14T11:44:06;100145.28;;;46.59;7.37
61906;BME280;47863;55.766;37.672;2023-06-14T11:46:32;100136.63;;;46.34;7.18
61906;BME280;47863;55.766;37.672;2023-06-14T11:48:58;100148.72;;;46.27;7.63
61906;BME280;47863;55.766;37.672;2023-06-14T11:51:24;100138.75;;;45.89;7.94
61906;BME280;47863;55.766;37.672;2023-06-14T11:53:50;100093.00;;;45.31;7.43
61906;BME280;47863;55.766;37.672;2023-06-14T11:56:16;100141.63;;;45.48;7.98
61906;BME280;47863;55.766;37.672;2023-06-14T11:58:43;100145.53;;;45.32;7.71
61906;BME280;47863;55.766;37.672;2023-06-14T12:01:09;100131.91;;;45.08;8.20
61906;BME280;47863;55.766;37.672;2023-06-14T12:03:34;100145.47;;;44.91;8.01
61906;BME280;47863;55.766;37.672;2023-06-14T12:06:05;100138.31;;;44.67;8.09
61906;BME280;47863;55.766;37.672;2023-06-14T12:08:36;100131.38;;;44.34;7.98
61906;BME280;47863;55.766;37.672;2023-06-14T12:11:14;100122.69;;;43.93;8.09
61906;BME280;47863;55.766;37.672;2023-06-14T12:13:41;100129.19;;;43.48;8.45
61906;BME280;47863;55.766;37.672;2023-06-14T12:16:11;100123.50;;;42.63;8.47
61906;BME280;47863;55.766;37.672;2023-06-14T12:18:39;100125.31;;;41.52;9.27
61906;BME280;47863;55.766;37.672;2023-06-14T12:21:09;100126.53;;;39.89;9.87
61906;BME280;47863;55.766;37.672;2023-06-14T12:23:45;100115.28;;;37.93;10.87
61906;BME280;47863;55.766;37.672;2023-06-14T12:26:15;100115.72;;;36.30;11.51
61906;BME280;47863;55.766;37.672;2023-06-14T12:28:41;100108.22;;;35.20;11.75
61906;BME280;47863;55.766;37.672;2023-06-14T12:31:08;100098.97;;;34.01;12.22
61906;BME280;47863;55.766;37.672;2023-06-14T12:33:34;100099.31;;;33.25;12.33
61906;BME280;47863;55.766;37.672;2023-06-14T12:36:03;100097.69;;;32.53;13.18
61906;BME280;47863;55.766;37.672;2023-06-14T12:38:29;100102.84;;;31.98;13.12
61906;BME280;47863;55.766;37.672;2023-06-14T12:40:54;100095.75;;;31.38;13.59
61906;BME280;47863;55.766;37.672;2023-06-14T12:43:20;100072.69;;;30.90;13.58
61906;BME280;47863;55.766;37.672;2023-06-14T12:45:46;100096.88;;;30.69;14.10
61906;BME280;47863;55.766;37.672;2023-06-14T12:48:11;100093.78;;;30.36;14.14
61906;BME280;47863;55.766;37.672;2023-06-14T12:50:37;100105.81;;;30.00;14.39
61906;BME280;47863;55.766;37.672;2023-06-14T13:12:05;100084.63;;;28.16;15.51
61906;BME280;47863;55.766;37.672;2023-06-14T13:14:30;100075.47;;;28.00;15.49
61906;BME280;47863;55.766;37.672;2023-06-14T13:16:57;100072.97;;;27.88;15.72
61906;BME280;47863;55.766;37.672;2023-06-14T13:19:23;100052.69;;;27.62;16.01
61906;BME280;47863;55.766;37.672;2023-06-14T13:21:49;100067.88;;;27.65;16.11
61906;BME280;47863;55.766;37.672;2023-06-14T13:24:15;100068.94;;;27.59;16.51
61906;BME280;47863;55.766;37.672;2023-06-14T13:26:40;100071.38;;;27.55;16.69
61906;BME280;47863;55.766;37.672;2023-06-14T13:29:06;100042.38;;;27.32;16.54
61906;BME280;47863;55.766;37.672;2023-06-14T13:31:31;100037.59;;;27.22;16.74
61906;BME280;47863;55.766;37.672;2023-06-14T13:33:57;100053.38;;;27.32;17.00
61906;BME280;47863;55.766;37.672;2023-06-14T13:36:23;100024.28;;;27.04;17.07
61906;BME280;47863;55.766;37.672;2023-06-14T13:38:48;100065.34;;;27.21;17.29
61906;BME280;47863;55.766;37.672;2023-06-14T13:41:14;100058.97;;;27.10;17.35
61906;BME280;47863;55.766;37.672;2023-06-14T13:43:40;100059.41;;;26.97;17.80
61906;BME280;47863;55.766;37.672;2023-06-14T13:46:06;100062.13;;;26.91;17.60
61906;BME280;47863;55.766;37.672;2023-06-14T13:48:31;100032.47;;;26.61;17.89
61906;BME280;47863;55.766;37.672;2023-06-14T13:50:59;100048.44;;;26.64;17.95
61906;BME280;47863;55.766;37.672;2023-06-14T13:53:26;100058.59;;;26.64;18.12
61906;BME280;47863;55.766;37.672;2023-06-14T13:55:52;100051.44;;;26.63;18.28
61906;BME280;47863;55.766;37.672;2023-06-14T13:58:18;100052.53;;;26.62;18.26
61906;BME280;47863;55.766;37.672;2023-06-14T14:00:44;100053.06;;;26.59;18.58
61906;BME280;47863;55.766;37.672;2023-06-14T14:03:10;100023.16;;;26.35;18.14
61906;BME280;47863;55.766;37.672;2023-06-14T14:05:36;100036.88;;;26.35;18.77
61906;BME280;47863;55.766;37.672;2023-06-14T14:08:03;100052.63;;;26.45;18.47
61906;BME280;47863;55.766;37.672;2023-06-14T14:10:29;100035.50;;;26.33;18.42
61906;BME280;47863;55.766;37.672;2023-06-14T14:12:55;100065.78;;;26.43;18.67
61906;BME280;47863;55.766;37.672;2023-06-14T14:15:20;100053.84;;;26.32;18.79
61906;BME280;47863;55.766;37.672;2023-06-14T14:17:46;100008.53;;;26.02;18.91
61906;BME280;47863;55.766;37.672;2023-06-14T14:20:12;100032.84;;;26.16;18.58
61906;BME280;47863;55.766;37.672;2023-06-14T14:22:41;100059.31;;;26.27;18.75
61906;BME280;47863;55.766;37.672;2023-06-14T14:25:08;100060.63;;;26.24;18.91
61906;BME280;47863;55.766;37.672;2023-06-14T14:27:33;100037.13;;;26.06;19.21
61906;BME280;47863;55.766;37.672;2023-06-14T14:29:59;100054.47;;;26.12;19.16
61906;BME280;47863;55.766;37.672;2023-06-14T14:32:25;100063.81;;;26.11;18.84
61906;BME280;47863;55.766;37.672;2023-06-14T14:34:51;100047.47;;;25.99;19.29